sensor_id;sensor_type;location;lat;lon;timestamp;P1;durP1;ratioP1;P2;durP2;ratioP2
43086;SDS011;28708;52.224;6.924;2023-12-14T00:02:05;14.67;;;6.17;;
43086;SDS011;28708;52.224;6.924;2023-12-14T00:04:30;15.93;;;6.07;;
43086;SDS011;28708;52.224;6.924;2023-12-14T00:06:56;16.90;;;6.93;;
43086;SDS011;28708;52.224;6.924;2023-12-14T00:09:21;16.43;;;7.00;;
43086;SDS011;28708;52.224;6.924;2023-12-14T00:11:47;16.17;;;7.03;;
43086;SDS011;28708;52.224;6.924;2023-12-14T00:14:13;16.83;;;7.43;;
43086;SDS011;28708;52.224;6.924;2023-12-14T00:16:38;14.27;;;6.10;;
43086;SDS011;28708;52.224;6.924;2023-12-14T00:19:04;15.30;;;6.80;;
43086;SDS011;28708;52.224;6.924;2023-12-14T00:21:30;17.13;;;7.63;;
43086;SDS011;28708;52.224;6.924;2023-12-14T00:23:55;16.53;;;6.60;;
43086;SDS011;28708;52.224;6.924;2023-12-14T00:26:21;18.13;;;6.77;;
43086;SDS011;28708;52.224;6.924;2023-12-14T00:28:47;16.47;;;7.27;;
43086;SDS011;28708;52.224;6.924;2023-12-14T00:31:12;19.90;;;7.30;;
43086;SDS011;28708;52.224;6.924;2023-12-14T00:33:38;18.10;;;5.93;;
43086;SDS011;28708;52.224;6.924;2023-12-14T00:36:04;17.43;;;7.27;;
43086;SDS011;28708;52.224;6.924;2023-12-14T00:38:29;15.90;;;6.70;;
43086;SDS011;28708;52.224;6.924;2023-12-14T00:40:55;17.90;;;7.47;;
43086;SDS011;28708;52.224;6.924;2023-12-14T00:43:21;17.27;;;6.67;;
43086;SDS011;28708;52.224;6.924;2023-12-14T00:45:46;16.97;;;6.80;;
43086;SDS011;28708;52.224;6.924;2023-12-14T00:48:12;18.17;;;6.83;;
43086;SDS011;28708;52.224;6.924;2023-12-14T00:50:38;16.00;;;6.77;;
43086;SDS011;28708;52.224;6.924;2023-12-14T00:53:03;13.17;;;6.00;;
43086;SDS011;28708;52.224;6.924;2023-12-14T00:55:29;21.30;;;7.13;;
43086;SDS011;28708;52.224;6.924;2023-12-14T00:57:54;20.17;;;7.33;;
43086;SDS011;28708;52.224;6.924;2023-12-14T01:00:20;16.50;;;6.03;;
43086;SDS011;28708;52.224;6.924;2023-12-14T01:02:46;20.57;;;7.77;;
43086;SDS011;28708;52.224;6.924;2023-12-14T01:05:13;18.57;;;7.13;;
43086;SDS011;28708;52.224;6.924;2023-12-14T01:07:39;14.67;;;7.13;;
43086;SDS011;28708;52.224;6.924;2023-12-14T01:10:05;17.93;;;7.40;;
43086;SDS011;28708;52.224;6.924;2023-12-14T01:12:31;19.53;;;6.80;;
43086;SDS011;28708;52.224;6.924;2023-12-14T01:14:57;14.33;;;5.53;;
43086;SDS011;28708;52.224;6.924;2023-12-14T01:17:22;18.67;;;7.47;;
43086;SDS011;28708;52.224;6.924;2023-12-14T01:19:48;19.33;;;7.53;;
43086;SDS011;28708;52.224;6.924;2023-12-14T01:22:13;19.20;;;6.70;;
43086;SDS011;28708;52.224;6.924;2023-12-14T01:24:39;16.43;;;6.67;;
43086;SDS011;28708;52.224;6.924;2023-12-14T01:27:04;18.23;;;6.80;;
43086;SDS011;28708;52.224;6.924;2023-12-14T01:29:30;16.07;;;7.03;;
43086;SDS011;28708;52.224;6.924;2023-12-14T01:31:56;16.93;;;8.00;;
43086;SDS011;28708;52.224;6.924;2023-12-14T01:34:22;17.90;;;7.50;;
43086;SDS011;28708;52.224;6.924;2023-12-14T01:36:47;18.20;;;6.80;;
43086;SDS011;28708;52.224;6.924;2023-12-14T01:39:13;17.33;;;7.13;;
43086;SDS011;28708;52.224;6.924;2023-12-14T01:41:38;16.77;;;6.33;;
43086;SDS011;28708;52.224;6.924;2023-12-14T01:44:04;16.60;;;7.00;;
43086;SDS011;28708;52.224;6.924;2023-12-14T01:46:30;15.00;;;5.90;;
43086;SDS011;28708;52.224;6.924;2023-12-14T01:48:55;15.60;;;6.23;;
43086;SDS011;28708;52.224;6.924;2023-12-14T01:51:21;18.27;;;7.00;;
43086;SDS011;28708;52.224;6.924;2023-12-14T01:53:46;14.63;;;7.13;;
43086;SDS011;28708;52.224;6.924;2023-12-14T01:56:12;16.03;;;7.30;;
43086;SDS011;28708;52.224;6.924;2023-12-14T01:58:38;17.53;;;6.33;;
43086;SDS011;28708;52.224;6.924;2023-12-14T02:01:08;17.53;;;6.77;;
43086;SDS011;28708;52.224;6.924;2023-12-14T02:03:46;15.10;;;6.55;;
43086;SDS011;28708;52.224;6.924;2023-12-14T02:06:14;15.17;;;6.53;;
43086;SDS011;28708;52.224;6.924;2023-12-14T02:08:40;20.03;;;7.63;;
43086;SDS011;28708;52.224;6.924;2023-12-14T02:11:06;18.13;;;7.03;;
43086;SDS011;28708;52.224;6.924;2023-12-14T02:13:32;18.10;;;6.90;;
43086;SDS011;28708;52.224;6.924;2023-12-14T02:15:58;17.40;;;6.87;;
43086;SDS011;28708;52.224;6.924;2023-12-14T02:18:24;14.70;;;6.53;;
43086;SDS011;28708;52.224;6.924;2023-12-14T02:20:49;17.00;;;6.90;;
43086;SDS011;28708;52.224;6.924;2023-12-14T02:23:15;19.30;;;6.90;;
43086;SDS011;28708;52.224;6.924;2023-12-14T02:25:40;16.77;;;6.80;;
43086;SDS011;28708;52.224;6.924;2023-12-14T02:28:06;15.27;;;6.13;;
43086;SDS011;28708;52.224;6.924;2023-12-14T02:30:32;12.13;;;6.10;;
43086;SDS011;28708;52.224;6.924;2023-12-14T02:32:57;15.30;;;6.43;;
43086;SDS011;28708;52.224;6.924;2023-12-14T02:35:23;13.93;;;5.17;;
43086;SDS011;28708;52.224;6.924;2023-12-14T02:37:48;17.00;;;6.13;;
43086;SDS011;28708;52.224;6.924;2023-12-14T02:40:14;14.10;;;6.40;;
43086;SDS011;28708;52.224;6.924;2023-12-14T02:42:40;15.07;;;6.07;;
43086;SDS011;28708;52.224;6.924;2023-12-14T02:45:07;16.23;;;6.70;;
43086;SDS011;28708;52.224;6.924;2023-12-14T02:47:33;16.10;;;6.37;;
43086;SDS011;28708;52.224;6.924;2023-12-14T02:49:59;14.40;;;5.87;;
43086;SDS011;28708;52.224;6.924;2023-12-14T02:52:25;12.83;;;5.87;;
43086;SDS011;28708;52.224;6.924;2023-12-14T02:54:50;14.93;;;6.00;;
43086;SDS011;28708;52.224;6.924;2023-12-14T02:57:16;17.27;;;6.43;;
43086;SDS011;28708;52.224;6.924;2023-12-14T02:59:42;17.60;;;7.57;;
43086;SDS011;28708;52.224;6.924;2023-12-14T03:02:07;12.70;;;6.00;;
43086;SDS011;28708;52.224;6.924;2023-12-14T03:04:34;13.50;;;5.87;;
43086;SDS011;28708;52.224;6.924;2023-12-14T03:06:59;15.13;;;6.90;;
43086;SDS011;28708;52.224;6.924;2023-12-14T03:09:28;14.87;;;6.47;;
43086;SDS011;28708;52.224;6.924;2023-12-14T03:11:54;10.13;;;5.53;;
43086;SDS011;28708;52.224;6.924;2023-12-14T03:14:20;11.33;;;5.50;;
43086;SDS011;28708;52.224;6.924;2023-12-14T03:16:45;11.10;;;4.90;;
43086;SDS011;28708;52.224;6.924;2023-12-14T03:19:11;10.47;;;5.53;;
43086;SDS011;28708;52.224;6.924;2023-12-14T03:21:38;12.07;;;5.77;;
43086;SDS011;28708;52.224;6.924;2023-12-14T03:24:03;11.90;;;5.83;;
43086;SDS011;28708;52.224;6.924;2023-12-14T03:26:29;12.10;;;5.33;;
43086;SDS011;28708;52.224;6.924;2023-12-14T03:28:55;13.00;;;6.10;;
43086;SDS011;28708;52.224;6.924;2023-12-14T03:31:20;9.73;;;4.77;;
43086;SDS011;28708;52.224;6.924;2023-12-14T03:33:46;10.93;;;4.90;;
43086;SDS011;28708;52.224;6.924;2023-12-14T03:36:13;11.77;;;6.00;;
43086;SDS011;28708;52.224;6.924;2023-12-14T03:38:38;12.87;;;5.97;;
43086;SDS011;28708;52.224;6.924;2023-12-14T03:41:04;12.03;;;5.33;;
43086;SDS011;28708;52.224;6.924;2023-12-14T03:43:30;11.60;;;5.70;;
43086;SDS011;28708;52.224;6.924;2023-12-14T03:45:57;11.37;;;5.20;;
43086;SDS011;28708;52.224;6.924;2023-12-14T03:48:22;11.93;;;5.37;;
43086;SDS011;28708;52.224;6.924;2023-12-14T03:50:48;10.67;;;4.37;;
43086;SDS011;28708;52.224;6.924;2023-12-14T03:53:14;11.20;;;4.83;;
43086;SDS011;28708;52.224;6.924;2023-12-14T03:55:39;12.20;;;5.30;;
43086;SDS011;28708;52.224;6.924;2023-12-14T03:58:05;11.70;;;5.13;;
43086;SDS011;28708;52.224;6.924;2023-12-14T04:00:30;10.83;;;5.40;;
43086;SDS011;28708;52.224;6.924;2023-12-14T04:02:56;12.57;;;6.37;;
43086;SDS011;28708;52.224;6.924;2023-12-14T04:05:22;10.50;;;5.20;;
43086;SDS011;28708;52.224;6.924;2023-12-14T04:07:48;11.13;;;5.57;;
43086;SDS011;28708;52.224;6.924;2023-12-14T04:10:13;12.90;;;5.63;;
43086;SDS011;28708;52.224;6.924;2023-12-14T04:12:39;9.97;;;4.67;;
43086;SDS011;28708;52.224;6.924;2023-12-14T04:15:06;10.07;;;4.80;;
43086;SDS011;28708;52.224;6.924;2023-12-14T04:17:34;13.83;;;6.20;;
43086;SDS011;28708;52.224;6.924;2023-12-14T04:19:59;11.50;;;5.27;;
43086;SDS011;28708;52.224;6.924;2023-12-14T04:22:25;13.47;;;5.43;;
43086;SDS011;28708;52.224;6.924;2023-12-14T04:24:51;14.23;;;5.67;;
43086;SDS011;28708;52.224;6.924;2023-12-14T04:27:17;10.50;;;4.97;;
43086;SDS011;28708;52.224;6.924;2023-12-14T04:29:43;8.90;;;4.83;;
43086;SDS011;28708;52.224;6.924;2023-12-14T04:32:08;11.33;;;5.13;;
43086;SDS011;28708;52.224;6.924;2023-12-14T04:34:35;10.17;;;5.00;;
43086;SDS011;28708;52.224;6.924;2023-12-14T04:37:00;10.67;;;4.77;;
43086;SDS011;28708;52.224;6.924;2023-12-14T04:39:26;8.97;;;4.47;;
43086;SDS011;28708;52.224;6.924;2023-12-14T04:41:52;10.07;;;4.53;;
43086;SDS011;28708;52.224;6.924;2023-12-14T04:44:19;8.37;;;4.53;;
43086;SDS011;28708;52.224;6.924;2023-12-14T04:46:46;11.47;;;5.03;;
43086;SDS011;28708;52.224;6.924;2023-12-14T04:49:12;11.37;;;4.97;;
43086;SDS011;28708;52.224;6.924;2023-12-14T04:51:38;8.33;;;4.43;;
43086;SDS011;28708;52.224;6.924;2023-12-14T04:54:03;9.67;;;4.40;;
43086;SDS011;28708;52.224;6.924;2023-12-14T04:56:29;10.03;;;5.00;;
43086;SDS011;28708;52.224;6.924;2023-12-14T04:58:55;8.87;;;4.07;;
43086;SDS011;28708;52.224;6.924;2023-12-14T05:01:21;9.93;;;4.37;;
43086;SDS011;28708;52.224;6.924;2023-12-14T05:03:46;9.50;;;4.47;;
43086;SDS011;28708;52.224;6.924;2023-12-14T05:06:12;8.97;;;4.17;;
43086;SDS011;28708;52.224;6.924;2023-12-14T05:08:38;7.27;;;3.50;;
43086;SDS011;28708;52.224;6.924;2023-12-14T05:11:04;7.87;;;3.37;;
43086;SDS011;28708;52.224;6.924;2023-12-14T05:13:29;7.23;;;3.63;;
43086;SDS011;28708;52.224;6.924;2023-12-14T05:15:55;9.83;;;4.33;;
43086;SDS011;28708;52.224;6.924;2023-12-14T05:18:22;8.37;;;3.80;;
43086;SDS011;28708;52.224;6.924;2023-12-14T05:20:49;8.07;;;3.47;;
43086;SDS011;28708;52.224;6.924;2023-12-14T05:23:15;8.03;;;4.30;;
43086;SDS011;28708;52.224;6.924;2023-12-14T05:25:41;10.13;;;4.63;;
43086;SDS011;28708;52.224;6.924;2023-12-14T05:28:06;7.57;;;4.03;;
43086;SDS011;28708;52.224;6.924;2023-12-14T05:30:32;8.07;;;4.03;;
43086;SDS011;28708;52.224;6.924;2023-12-14T05:32:57;9.40;;;3.70;;
43086;SDS011;28708;52.224;6.924;2023-12-14T05:35:23;9.43;;;4.67;;
43086;SDS011;28708;52.224;6.924;2023-12-14T05:37:49;13.00;;;5.30;;
43086;SDS011;28708;52.224;6.924;2023-12-14T05:40:14;9.90;;;4.40;;
43086;SDS011;28708;52.224;6.924;2023-12-14T05:42:40;10.07;;;4.63;;
43086;SDS011;28708;52.224;6.924;2023-12-14T05:45:06;11.10;;;4.63;;
43086;SDS011;28708;52.224;6.924;2023-12-14T05:47:34;9.00;;;4.17;;
43086;SDS011;28708;52.224;6.924;2023-12-14T05:50:03;11.97;;;5.50;;
43086;SDS011;28708;52.224;6.924;2023-12-14T05:52:29;14.20;;;5.22;;
43086;SDS011;28708;52.224;6.924;2023-12-14T05:54:55;15.30;;;5.97;;
43086;SDS011;28708;52.224;6.924;2023-12-14T05:57:20;12.37;;;5.70;;
43086;SDS011;28708;52.224;6.924;2023-12-14T05:59:46;13.23;;;4.37;;
43086;SDS011;28708;52.224;6.924;2023-12-14T06:02:13;16.87;;;5.73;;
43086;SDS011;28708;52.224;6.924;2023-12-14T06:04:39;10.90;;;4.63;;
43086;SDS011;28708;52.224;6.924;2023-12-14T06:07:04;15.87;;;5.33;;
43086;SDS011;28708;52.224;6.924;2023-12-14T06:09:31;10.57;;;5.43;;
43086;SDS011;28708;52.224;6.924;2023-12-14T06:12:02;11.35;;;5.82;;
43086;SDS011;28708;52.224;6.924;2023-12-14T06:14:29;13.50;;;5.57;;
43086;SDS011;28708;52.224;6.924;2023-12-14T06:16:55;13.37;;;5.80;;
43086;SDS011;28708;52.224;6.924;2023-12-14T06:19:20;13.00;;;5.40;;
43086;SDS011;28708;52.224;6.924;2023-12-14T06:21:46;14.47;;;5.83;;
43086;SDS011;28708;52.224;6.924;2023-12-14T06:24:13;10.80;;;4.93;;
43086;SDS011;28708;52.224;6.924;2023-12-14T06:26:42;11.67;;;5.40;;
43086;SDS011;28708;52.224;6.924;2023-12-14T06:29:11;13.87;;;6.07;;
43086;SDS011;28708;52.224;6.924;2023-12-14T06:31:37;11.13;;;5.47;;
43086;SDS011;28708;52.224;6.924;2023-12-14T06:34:04;14.60;;;6.07;;
43086;SDS011;28708;52.224;6.924;2023-12-14T06:36:33;10.43;;;4.67;;
43086;SDS011;28708;52.224;6.924;2023-12-14T06:39:00;10.87;;;4.70;;
43086;SDS011;28708;52.224;6.924;2023-12-14T06:41:26;12.17;;;5.03;;
43086;SDS011;28708;52.224;6.924;2023-12-14T06:43:53;10.93;;;4.90;;
43086;SDS011;28708;52.224;6.924;2023-12-14T06:46:19;12.10;;;5.43;;
43086;SDS011;28708;52.224;6.924;2023-12-14T06:48:45;13.20;;;5.17;;
43086;SDS011;28708;52.224;6.924;2023-12-14T06:51:11;9.83;;;4.57;;
43086;SDS011;28708;52.224;6.924;2023-12-14T06:53:39;9.07;;;4.93;;
43086;SDS011;28708;52.224;6.924;2023-12-14T06:56:06;8.37;;;4.30;;
43086;SDS011;28708;52.224;6.924;2023-12-14T06:58:35;9.60;;;4.20;;
43086;SDS011;28708;52.224;6.924;2023-12-14T07:01:00;6.23;;;3.20;;
43086;SDS011;28708;52.224;6.924;2023-12-14T07:03:26;10.40;;;3.90;;
43086;SDS011;28708;52.224;6.924;2023-12-14T07:05:52;10.27;;;4.27;;
43086;SDS011;28708;52.224;6.924;2023-12-14T07:08:17;9.03;;;4.17;;
43086;SDS011;28708;52.224;6.924;2023-12-14T07:10:43;8.30;;;3.47;;
43086;SDS011;28708;52.224;6.924;2023-12-14T07:13:09;11.70;;;5.53;;
43086;SDS011;28708;52.224;6.924;2023-12-14T07:15:34;8.67;;;4.43;;
43086;SDS011;28708;52.224;6.924;2023-12-14T07:18:00;9.17;;;4.60;;
43086;SDS011;28708;52.224;6.924;2023-12-14T07:20:25;7.87;;;3.87;;
43086;SDS011;28708;52.224;6.924;2023-12-14T07:22:51;10.00;;;4.23;;
43086;SDS011;28708;52.224;6.924;2023-12-14T07:25:17;6.97;;;3.83;;
43086;SDS011;28708;52.224;6.924;2023-12-14T07:27:42;7.90;;;3.77;;
43086;SDS011;28708;52.224;6.924;2023-12-14T07:30:08;7.93;;;3.90;;
43086;SDS011;28708;52.224;6.924;2023-12-14T07:32:35;6.83;;;4.00;;
43086;SDS011;28708;52.224;6.924;2023-12-14T07:35:00;9.77;;;4.37;;
43086;SDS011;28708;52.224;6.924;2023-12-14T07:37:26;8.63;;;4.03;;
43086;SDS011;28708;52.224;6.924;2023-12-14T07:39:52;7.83;;;4.27;;
43086;SDS011;28708;52.224;6.924;2023-12-14T07:42:17;6.83;;;3.50;;
43086;SDS011;28708;52.224;6.924;2023-12-14T07:44:45;8.67;;;4.50;;
43086;SDS011;28708;52.224;6.924;2023-12-14T07:47:11;11.40;;;4.80;;
43086;SDS011;28708;52.224;6.924;2023-12-14T07:49:37;8.37;;;4.13;;
43086;SDS011;28708;52.224;6.924;2023-12-14T07:52:02;8.07;;;3.83;;
43086;SDS011;28708;52.224;6.924;2023-12-14T07:54:28;10.87;;;4.40;;
43086;SDS011;28708;52.224;6.924;2023-12-14T07:56:54;10.13;;;5.00;;
43086;SDS011;28708;52.224;6.924;2023-12-14T07:59:20;10.23;;;5.07;;
43086;SDS011;28708;52.224;6.924;2023-12-14T08:01:46;9.23;;;4.70;;
43086;SDS011;28708;52.224;6.924;2023-12-14T08:04:12;9.47;;;4.73;;
43086;SDS011;28708;52.224;6.924;2023-12-14T08:06:37;8.17;;;4.17;;
43086;SDS011;28708;52.224;6.924;2023-12-14T08:09:04;10.00;;;5.40;;
43086;SDS011;28708;52.224;6.924;2023-12-14T08:11:35;11.67;;;6.07;;
43086;SDS011;28708;52.224;6.924;2023-12-14T08:14:00;12.13;;;6.10;;
43086;SDS011;28708;52.224;6.924;2023-12-14T08:16:27;9.70;;;5.27;;
43086;SDS011;28708;52.224;6.924;2023-12-14T08:18:53;10.87;;;5.37;;
43086;SDS011;28708;52.224;6.924;2023-12-14T08:21:19;9.77;;;5.30;;
43086;SDS011;28708;52.224;6.924;2023-12-14T08:23:44;11.53;;;5.67;;
43086;SDS011;28708;52.224;6.924;2023-12-14T08:26:10;10.67;;;5.00;;
43086;SDS011;28708;52.224;6.924;2023-12-14T08:28:38;10.90;;;5.50;;
43086;SDS011;28708;52.224;6.924;2023-12-14T08:31:04;10.90;;;4.60;;
43086;SDS011;28708;52.224;6.924;2023-12-14T08:33:30;10.37;;;5.63;;
43086;SDS011;28708;52.224;6.924;2023-12-14T08:35:56;11.80;;;5.83;;
43086;SDS011;28708;52.224;6.924;2023-12-14T08:38:22;12.23;;;5.87;;
43086;SDS011;28708;52.224;6.924;2023-12-14T08:40:48;11.27;;;5.50;;
43086;SDS011;28708;52.224;6.924;2023-12-14T08:43:14;11.73;;;5.60;;
43086;SDS011;28708;52.224;6.924;2023-12-14T08:45:39;9.63;;;4.93;;
43086;SDS011;28708;52.224;6.924;2023-12-14T08:48:05;11.03;;;5.37;;
43086;SDS011;28708;52.224;6.924;2023-12-14T08:50:31;11.47;;;5.97;;
43086;SDS011;28708;52.224;6.924;2023-12-14T08:52:56;10.07;;;5.47;;
43086;SDS011;28708;52.224;6.924;2023-12-14T08:55:25;13.63;;;6.30;;
43086;SDS011;28708;52.224;6.924;2023-12-14T08:57:51;11.80;;;5.53;;
43086;SDS011;28708;52.224;6.924;2023-12-14T09:00:17;12.83;;;6.83;;
43086;SDS011;28708;52.224;6.924;2023-12-14T09:02:46;9.77;;;5.17;;
43086;SDS011;28708;52.224;6.924;2023-12-14T09:05:12;14.13;;;7.07;;
43086;SDS011;28708;52.224;6.924;2023-12-14T09:07:39;11.87;;;5.17;;
43086;SDS011;28708;52.224;6.924;2023-12-14T09:10:05;9.50;;;4.80;;
43086;SDS011;28708;52.224;6.924;2023-12-14T09:12:32;10.50;;;5.07;;
43086;SDS011;28708;52.224;6.924;2023-12-14T09:14:58;9.50;;;5.27;;
43086;SDS011;28708;52.224;6.924;2023-12-14T09:17:24;10.40;;;5.30;;
43086;SDS011;28708;52.224;6.924;2023-12-14T09:19:50;9.83;;;4.87;;
43086;SDS011;28708;52.224;6.924;2023-12-14T09:22:15;7.50;;;3.70;;
43086;SDS011;28708;52.224;6.924;2023-12-14T09:24:42;8.57;;;4.17;;
43086;SDS011;28708;52.224;6.924;2023-12-14T09:27:08;10.13;;;5.00;;
43086;SDS011;28708;52.224;6.924;2023-12-14T09:29:33;8.80;;;4.60;;
43086;SDS011;28708;52.224;6.924;2023-12-14T09:31:59;11.70;;;5.20;;
43086;SDS011;28708;52.224;6.924;2023-12-14T09:34:25;10.03;;;4.63;;
43086;SDS011;28708;52.224;6.924;2023-12-14T09:36:50;7.83;;;4.07;;
43086;SDS011;28708;52.224;6.924;2023-12-14T09:39:17;10.37;;;5.40;;
43086;SDS011;28708;52.224;6.924;2023-12-14T09:41:46;8.73;;;4.88;;
43086;SDS011;28708;52.224;6.924;2023-12-14T09:44:15;8.77;;;4.67;;
43086;SDS011;28708;52.224;6.924;2023-12-14T09:46:41;7.27;;;4.50;;
43086;SDS011;28708;52.224;6.924;2023-12-14T09:49:11;8.27;;;3.93;;
43086;SDS011;28708;52.224;6.924;2023-12-14T09:51:38;8.83;;;4.37;;
43086;SDS011;28708;52.224;6.924;2023-12-14T09:54:06;7.83;;;3.93;;
43086;SDS011;28708;52.224;6.924;2023-12-14T09:56:31;9.73;;;4.47;;
43086;SDS011;28708;52.224;6.924;2023-12-14T09:58:57;8.07;;;4.10;;
43086;SDS011;28708;52.224;6.924;2023-12-14T10:01:23;7.83;;;4.03;;
43086;SDS011;28708;52.224;6.924;2023-12-14T10:03:50;8.93;;;4.50;;
43086;SDS011;28708;52.224;6.924;2023-12-14T10:06:36;6.73;;;3.70;;
43086;SDS011;28708;52.224;6.924;2023-12-14T10:09:05;7.50;;;3.80;;
43086;SDS011;28708;52.224;6.924;2023-12-14T10:11:37;8.13;;;3.90;;
43086;SDS011;28708;52.224;6.924;2023-12-14T10:14:13;7.80;;;3.60;;
43086;SDS011;28708;52.224;6.924;2023-12-14T10:16:47;7.30;;;3.83;;
43086;SDS011;28708;52.224;6.924;2023-12-14T10:19:14;8.77;;;4.63;;
43086;SDS011;28708;52.224;6.924;2023-12-14T10:21:39;11.33;;;5.03;;
43086;SDS011;28708;52.224;6.924;2023-12-14T10:24:06;9.00;;;4.50;;
43086;SDS011;28708;52.224;6.924;2023-12-14T10:26:31;9.27;;;4.93;;
43086;SDS011;28708;52.224;6.924;2023-12-14T10:28:57;6.93;;;3.53;;
43086;SDS011;28708;52.224;6.924;2023-12-14T10:31:23;8.30;;;4.03;;
43086;SDS011;28708;52.224;6.924;2023-12-14T10:33:51;6.67;;;3.80;;
43086;SDS011;28708;52.224;6.924;2023-12-14T10:36:20;6.17;;;3.67;;
43086;SDS011;28708;52.224;6.924;2023-12-14T10:38:52;10.60;;;4.60;;
43086;SDS011;28708;52.224;6.924;2023-12-14T10:41:19;6.77;;;3.67;;
43086;SDS011;28708;52.224;6.924;2023-12-14T10:43:47;9.83;;;4.37;;
43086;SDS011;28708;52.224;6.924;2023-12-14T10:46:13;8.37;;;4.17;;
43086;SDS011;28708;52.224;6.924;2023-12-14T10:48:39;8.63;;;4.60;;
43086;SDS011;28708;52.224;6.924;2023-12-14T10:51:07;9.53;;;4.97;;
43086;SDS011;28708;52.224;6.924;2023-12-14T10:53:34;8.03;;;4.40;;
43086;SDS011;28708;52.224;6.924;2023-12-14T10:56:01;6.90;;;3.87;;
43086;SDS011;28708;52.224;6.924;2023-12-14T11:01:21;7.80;;;4.17;;
43086;SDS011;28708;52.224;6.924;2023-12-14T11:03:54;6.97;;;3.17;;
43086;SDS011;28708;52.224;6.924;2023-12-14T11:08:51;6.43;;;3.13;;
43086;SDS011;28708;52.224;6.924;2023-12-14T11:11:18;6.77;;;3.67;;
43086;SDS011;28708;52.224;6.924;2023-12-14T11:13:52;9.70;;;4.17;;
43086;SDS011;28708;52.224;6.924;2023-12-14T11:16:21;8.33;;;3.80;;
43086;SDS011;28708;52.224;6.924;2023-12-14T11:18:48;5.78;;;3.15;;
43086;SDS011;28708;52.224;6.924;2023-12-14T11:21:33;6.37;;;3.43;;
43086;SDS011;28708;52.224;6.924;2023-12-14T11:23:59;7.07;;;3.70;;
43086;SDS011;28708;52.224;6.924;2023-12-14T11:26:26;6.03;;;3.10;;
43086;SDS011;28708;52.224;6.924;2023-12-14T11:28:53;7.00;;;3.03;;
43086;SDS011;28708;52.224;6.924;2023-12-14T11:31:19;7.60;;;3.60;;
43086;SDS011;28708;52.224;6.924;2023-12-14T11:33:45;7.00;;;3.57;;
43086;SDS011;28708;52.224;6.924;2023-12-14T11:36:13;6.10;;;3.03;;
43086;SDS011;28708;52.224;6.924;2023-12-14T11:38:39;8.07;;;3.57;;
43086;SDS011;28708;52.224;6.924;2023-12-14T11:41:05;6.00;;;2.87;;
43086;SDS011;28708;52.224;6.924;2023-12-14T11:43:38;6.90;;;3.37;;
43086;SDS011;28708;52.224;6.924;2023-12-14T11:46:07;6.40;;;3.47;;
43086;SDS011;28708;52.224;6.924;2023-12-14T11:48:33;5.87;;;3.10;;
43086;SDS011;28708;52.224;6.924;2023-12-14T11:50:58;7.43;;;3.73;;
43086;SDS011;28708;52.224;6.924;2023-12-14T11:53:25;5.93;;;3.27;;
43086;SDS011;28708;52.224;6.924;2023-12-14T11:55:51;5.53;;;2.70;;
43086;SDS011;28708;52.224;6.924;2023-12-14T11:58:17;6.33;;;2.70;;
43086;SDS011;28708;52.224;6.924;2023-12-14T12:00:43;7.23;;;3.80;;
43086;SDS011;28708;52.224;6.924;2023-12-14T12:03:15;5.33;;;2.90;;
43086;SDS011;28708;52.224;6.924;2023-12-14T12:05:43;6.60;;;3.50;;
43086;SDS011;28708;52.224;6.924;2023-12-14T12:08:11;6.67;;;2.77;;
43086;SDS011;28708;52.224;6.924;2023-12-14T12:10:39;6.77;;;3.10;;
43086;SDS011;28708;52.224;6.924;2023-12-14T12:13:16;6.90;;;3.10;;
43086;SDS011;28708;52.224;6.924;2023-12-14T12:15:43;5.93;;;3.03;;
43086;SDS011;28708;52.224;6.924;2023-12-14T12:18:09;5.50;;;2.60;;
43086;SDS011;28708;52.224;6.924;2023-12-14T12:20:36;5.67;;;2.70;;
43086;SDS011;28708;52.224;6.924;2023-12-14T12:23:02;6.87;;;3.10;;
43086;SDS011;28708;52.224;6.924;2023-12-14T12:25:32;5.03;;;2.40;;
43086;SDS011;28708;52.224;6.924;2023-12-14T12:28:01;5.80;;;3.00;;
43086;SDS011;28708;52.224;6.924;2023-12-14T12:30:28;5.60;;;3.00;;
43086;SDS011;28708;52.224;6.924;2023-12-14T12:32:54;4.90;;;2.70;;
43086;SDS011;28708;52.224;6.924;2023-12-14T12:35:21;5.40;;;2.80;;
43086;SDS011;28708;52.224;6.924;2023-12-14T12:37:47;6.87;;;3.37;;
43086;SDS011;28708;52.224;6.924;2023-12-14T12:40:18;5.13;;;2.77;;
43086;SDS011;28708;52.224;6.924;2023-12-14T12:42:45;4.53;;;2.60;;
43086;SDS011;28708;52.224;6.924;2023-12-14T12:45:13;6.60;;;3.00;;
43086;SDS011;28708;52.224;6.924;2023-12-14T12:47:41;5.43;;;3.07;;
43086;SDS011;28708;52.224;6.924;2023-12-14T12:50:07;6.43;;;3.47;;
43086;SDS011;28708;52.224;6.924;2023-12-14T12:52:33;4.90;;;2.80;;
43086;SDS011;28708;52.224;6.924;2023-12-14T12:54:58;6.63;;;3.40;;
43086;SDS011;28708;52.224;6.924;2023-12-14T12:57:25;3.90;;;2.30;;
43086;SDS011;28708;52.224;6.924;2023-12-14T12:59:51;6.20;;;2.70;;
43086;SDS011;28708;52.224;6.924;2023-12-14T13:02:17;8.13;;;3.30;;
43086;SDS011;28708;52.224;6.924;2023-12-14T13:04:43;5.73;;;2.83;;
43086;SDS011;28708;52.224;6.924;2023-12-14T13:07:08;5.47;;;2.80;;
43086;SDS011;28708;52.224;6.924;2023-12-14T13:09:34;5.87;;;2.90;;
43086;SDS011;28708;52.224;6.924;2023-12-14T13:11:59;5.27;;;2.67;;
43086;SDS011;28708;52.224;6.924;2023-12-14T13:14:25;5.83;;;3.30;;
43086;SDS011;28708;52.224;6.924;2023-12-14T13:16:51;6.10;;;2.50;;
43086;SDS011;28708;52.224;6.924;2023-12-14T13:19:17;5.90;;;2.53;;
43086;SDS011;28708;52.224;6.924;2023-12-14T13:21:42;5.93;;;2.57;;
43086;SDS011;28708;52.224;6.924;2023-12-14T13:24:08;5.43;;;2.67;;
43086;SDS011;28708;52.224;6.924;2023-12-14T13:26:33;5.63;;;2.93;;
43086;SDS011;28708;52.224;6.924;2023-12-14T13:28:59;6.90;;;3.23;;
43086;SDS011;28708;52.224;6.924;2023-12-14T13:31:25;5.70;;;2.67;;
43086;SDS011;28708;52.224;6.924;2023-12-14T13:33:50;5.63;;;2.93;;
43086;SDS011;28708;52.224;6.924;2023-12-14T13:36:17;6.23;;;3.20;;
43086;SDS011;28708;52.224;6.924;2023-12-14T13:38:44;6.03;;;2.80;;
43086;SDS011;28708;52.224;6.924;2023-12-14T13:41:10;5.83;;;2.97;;
43086;SDS011;28708;52.224;6.924;2023-12-14T13:43:35;6.53;;;3.23;;
43086;SDS011;28708;52.224;6.924;2023-12-14T13:46:01;6.37;;;2.63;;
43086;SDS011;28708;52.224;6.924;2023-12-14T13:48:28;6.67;;;2.97;;
43086;SDS011;28708;52.224;6.924;2023-12-14T13:50:54;6.73;;;3.10;;
43086;SDS011;28708;52.224;6.924;2023-12-14T13:53:20;7.10;;;3.47;;
43086;SDS011;28708;52.224;6.924;2023-12-14T13:55:46;6.13;;;3.27;;
43086;SDS011;28708;52.224;6.924;2023-12-14T13:58:14;8.27;;;3.60;;
43086;SDS011;28708;52.224;6.924;2023-12-14T14:00:40;8.83;;;3.33;;
43086;SDS011;28708;52.224;6.924;2023-12-14T14:03:06;8.93;;;4.17;;
43086;SDS011;28708;52.224;6.924;2023-12-14T14:05:33;6.90;;;3.13;;
43086;SDS011;28708;52.224;6.924;2023-12-14T14:07:59;8.63;;;3.23;;
43086;SDS011;28708;52.224;6.924;2023-12-14T14:10:25;6.57;;;3.20;;
43086;SDS011;28708;52.224;6.924;2023-12-14T14:12:51;7.10;;;3.53;;
43086;SDS011;28708;52.224;6.924;2023-12-14T14:15:18;7.77;;;3.23;;
43086;SDS011;28708;52.224;6.924;2023-12-14T14:17:46;10.33;;;3.70;;
43086;SDS011;28708;52.224;6.924;2023-12-14T14:20:17;7.40;;;2.87;;
43086;SDS011;28708;52.224;6.924;2023-12-14T14:22:43;9.40;;;3.80;;
43086;SDS011;28708;52.224;6.924;2023-12-14T14:25:09;9.77;;;3.63;;
43086;SDS011;28708;52.224;6.924;2023-12-14T14:27:35;8.53;;;3.33;;
43086;SDS011;28708;52.224;6.924;2023-12-14T14:30:01;5.70;;;3.07;;
43086;SDS011;28708;52.224;6.924;2023-12-14T14:32:27;6.27;;;3.47;;
43086;SDS011;28708;52.224;6.924;2023-12-14T14:34:52;8.40;;;3.60;;
43086;SDS011;28708;52.224;6.924;2023-12-14T14:37:20;6.60;;;3.13;;
43086;SDS011;28708;52.224;6.924;2023-12-14T14:39:47;6.43;;;3.43;;
43086;SDS011;28708;52.224;6.924;2023-12-14T14:42:13;7.47;;;3.33;;